Terminal Aerodrome Forecast
Issued by NWS

Home | Current Version | Previous Version | Text Only | Print | Product List | Glossary On
Versions: 1 2 3 4 5 6 7 8 9 10 11 12 13 14 15 16 17
000
FTUS45 KBYZ 280542
TAFLVM
TAF
KLVM 280542Z 2806/0106 VRB06KT P6SM VCSH SCT035 OVC090
     FM281100 23015G27KT P6SM SCT040 BKN100
     FM282100 24016G29KT P6SM VCSH SCT030 BKN070
     FM010400 27020G37KT P6SM FEW030 BKN090=

USA.gov is the U.S. government's official web portal to all federal, state and local government web resources and services.